Time;durP1;ratioP1;P1;durP2;ratioP2;P2;SDS_P1;SDS_P2;PMS_P1;PMS_P2;Temp;Humidity;BMP_temperature;BMP_pressure;BME280_temperature;BME280_humidity;BME280_pressure;Samples;Min_cycle;Max_cycle;Signal;HPM_P1;HPM_P2
2023/09/02 00:00:54;;;;;;;6.35;5.63;;;20.90;99.90;;;;;;5058949;28;20197;-55
2023/09/02 00:03:21;;;;;;;9.57;5.90;;;20.90;99.90;;;;;;5056556;28;20220;-54
2023/09/02 00:05:48;;;;;;;5.70;5.00;;;20.90;99.90;;;;;;5053594;28;20198;-55
2023/09/02 00:08:14;;;;;;;9.10;5.55;;;20.90;99.90;;;;;;5057531;28;20455;-54
2023/09/02 00:10:41;;;;;;;5.68;4.93;;;20.90;99.90;;;;;;5057521;28;20582;-53
2023/09/02 00:13:08;;;;;;;7.38;5.03;;;20.90;99.90;;;;;;5055168;28;20206;-58
2023/09/02 00:15:34;;;;;;;7.07;5.43;;;20.90;99.90;;;;;;5055728;28;20199;-53
2023/09/02 00:18:02;;;;;;;7.22;5.43;;;20.90;99.90;;;;;;5056515;28;20472;-57
2023/09/02 00:20:29;;;;;;;5.07;4.55;;;20.90;99.90;;;;;;5054059;28;20695;-61
2023/09/02 00:22:56;;;;;;;8.00;4.93;;;20.90;99.90;;;;;;5059168;28;20202;-62
2023/09/02 00:25:24;;;;;;;6.18;5.22;;;20.80;99.90;;;;;;5055869;28;20226;-53
2023/09/02 00:27:51;;;;;;;9.02;4.80;;;20.80;99.90;;;;;;5054983;28;20283;-57
2023/09/02 00:30:18;;;;;;;7.63;5.82;;;20.80;99.90;;;;;;5056628;28;20199;-57
2023/09/02 00:32:45;;;;;;;7.85;5.20;;;20.80;99.90;;;;;;5058643;28;20214;-58
2023/09/02 00:35:13;;;;;;;5.97;5.13;;;20.80;99.90;;;;;;5057050;28;20198;-60
2023/09/02 00:37:40;;;;;;;7.13;4.97;;;20.80;99.90;;;;;;5057293;28;20210;-56
2023/09/02 00:40:10;;;;;;;5.32;4.75;;;20.80;99.90;;;;;;5057771;28;20192;-55
2023/09/02 00:42:39;;;;;;;6.38;5.60;;;20.80;99.90;;;;;;5055504;28;20694;-55
2023/09/02 00:45:07;;;;;;;5.55;5.05;;;20.80;99.90;;;;;;5058883;28;20190;-60
2023/09/02 00:47:34;;;;;;;7.22;5.13;;;20.80;99.90;;;;;;5057899;28;20198;-59
2023/09/02 00:50:00;;;;;;;6.82;4.75;;;20.80;99.90;;;;;;5057002;28;20202;-53
2023/09/02 00:52:32;;;;;;;9.70;6.18;;;20.80;99.90;;;;;;5056991;28;20222;-61
2023/09/02 00:54:59;;;;;;;6.13;5.50;;;20.80;99.90;;;;;;5057520;28;20190;-57
2023/09/02 00:57:26;;;;;;;5.78;4.80;;;20.80;99.90;;;;;;5056427;28;20608;-53
2023/09/02 00:59:53;;;;;;;5.47;4.75;;;20.80;99.90;;;;;;5055964;28;20197;-54
2023/09/02 01:02:21;;;;;;;9.77;5.90;;;20.80;99.90;;;;;;5064329;22;20241;-57
2023/09/02 01:04:48;;;;;;;5.53;4.55;;;20.80;99.90;;;;;;5046825;28;20974;-56
2023/09/02 01:07:16;;;;;;;7.65;5.03;;;20.80;99.90;;;;;;5047488;28;20526;-56
2023/09/02 01:09:44;;;;;;;6.05;5.38;;;20.80;99.90;;;;;;5045903;28;20213;-57
2023/09/02 01:12:13;;;;;;;7.80;5.00;;;20.80;99.90;;;;;;5050580;28;20219;-58
2023/09/02 01:14:39;;;;;;;6.07;5.40;;;20.80;99.90;;;;;;5048419;28;20202;-58
2023/09/02 01:17:06;;;;;;;9.15;5.75;;;20.80;99.90;;;;;;5049697;28;20189;-57
2023/09/02 01:19:33;;;;;;;7.60;5.43;;;20.80;99.90;;;;;;5052221;28;20198;-59
2023/09/02 01:22:21;;;;;;;8.05;5.60;;;20.80;99.90;;;;;;5055614;28;20190;-56
2023/09/02 01:25:06;;;;;;;6.25;4.68;;;20.70;99.90;;;;;;5054220;28;20199;-59
2023/09/02 01:27:38;;;;;;;6.25;4.75;;;20.70;99.90;;;;;;5055286;28;20297;-59
2023/09/02 01:30:10;;;;;;;9.82;5.03;;;20.80;99.90;;;;;;5053666;28;20256;-56
2023/09/02 01:32:42;;;;;;;5.72;4.60;;;20.70;99.90;;;;;;5046228;28;20285;-58
2023/09/02 01:35:09;;;;;;;8.27;4.93;;;20.70;99.90;;;;;;5048528;28;20506;-57
2023/09/02 01:37:42;;;;;;;5.43;4.35;;;20.70;99.90;;;;;;5059238;28;20202;-56
2023/09/02 01:40:12;;;;;;;6.20;4.95;;;20.70;99.90;;;;;;5059532;28;20187;-59
2023/09/02 01:42:42;;;;;;;6.85;4.97;;;20.70;99.90;;;;;;5052156;28;20195;-54
2023/09/02 01:45:11;;;;;;;5.15;4.63;;;20.70;99.90;;;;;;5057036;28;20265;-57
2023/09/02 01:47:39;;;;;;;5.30;4.47;;;20.70;99.90;;;;;;5057780;28;20191;-58
2023/09/02 01:50:11;;;;;;;6.85;5.53;;;20.70;99.90;;;;;;5056372;28;20187;-55
2023/09/02 01:52:38;;;;;;;7.88;5.20;;;20.70;99.90;;;;;;5052585;28;20266;-59
2023/09/02 01:55:06;;;;;;;6.32;4.95;;;20.70;99.90;;;;;;5049151;28;20187;-60
2023/09/02 01:57:33;;;;;;;7.20;4.97;;;20.70;99.90;;;;;;5050466;28;20196;-56
2023/09/02 02:00:03;;;;;;;4.85;4.35;;;20.70;99.90;;;;;;5048420;28;20205;-57
2023/09/02 02:02:30;;;;;;;7.45;5.05;;;20.70;99.90;;;;;;5044332;28;20651;-61
2023/09/02 02:05:02;;;;;;;5.20;4.80;;;20.70;99.90;;;;;;5046335;28;20187;-58
2023/09/02 02:07:34;;;;;;;5.78;4.10;;;20.70;99.90;;;;;;5047130;28;20494;-57
2023/09/02 02:10:04;;;;;;;5.93;4.60;;;20.70;99.90;;;;;;5046226;28;20215;-58
2023/09/02 02:12:32;;;;;;;4.63;3.95;;;20.70;99.90;;;;;;5046072;28;20245;-58
2023/09/02 02:14:59;;;;;;;6.03;5.18;;;20.70;99.90;;;;;;5045929;28;20195;-57
2023/09/02 02:17:28;;;;;;;7.90;5.40;;;20.70;99.90;;;;;;5044669;28;20203;-58
2023/09/02 02:19:55;;;;;;;5.43;4.60;;;20.70;99.90;;;;;;5044490;28;20211;-59
2023/09/02 02:22:21;;;;;;;5.38;4.72;;;20.70;99.90;;;;;;5045526;28;20210;-60
2023/09/02 02:24:48;;;;;;;7.68;4.93;;;20.70;99.90;;;;;;5055368;28;20202;-60
2023/09/02 02:27:15;;;;;;;5.45;4.95;;;20.70;99.90;;;;;;5054663;28;20201;-60
2023/09/02 02:29:41;;;;;;;5.70;4.65;;;20.70;99.90;;;;;;5054079;28;20284;-56
2023/09/02 02:32:08;;;;;;;5.50;4.50;;;20.70;99.90;;;;;;5050687;28;21137;-56
2023/09/02 02:34:36;;;;;;;7.55;4.65;;;20.70;99.90;;;;;;5048209;28;20214;-57
2023/09/02 02:37:03;;;;;;;8.18;5.05;;;20.70;99.90;;;;;;5045194;28;20194;-57
2023/09/02 02:39:30;;;;;;;5.30;4.80;;;20.70;99.90;;;;;;5044189;28;20781;-59
2023/09/02 02:41:57;;;;;;;4.90;4.32;;;20.70;99.90;;;;;;5044193;28;20662;-57
2023/09/02 02:44:23;;;;;;;4.68;4.28;;;20.70;99.90;;;;;;5043615;28;20206;-57
2023/09/02 02:46:50;;;;;;;5.47;4.45;;;20.70;99.90;;;;;;5043154;28;20190;-56
2023/09/02 02:49:17;;;;;;;5.25;4.30;;;20.70;99.90;;;;;;5048130;28;20661;-59
2023/09/02 02:51:45;;;;;;;5.43;4.90;;;20.70;99.90;;;;;;5039725;28;20322;-58
2023/09/02 02:54:12;;;;;;;6.07;4.47;;;20.70;99.90;;;;;;5044735;28;20222;-58
2023/09/02 02:56:38;;;;;;;4.47;4.03;;;20.70;99.90;;;;;;5044656;28;20199;-60
2023/09/02 02:59:05;;;;;;;5.00;4.28;;;20.70;99.90;;;;;;5045388;28;20184;-56
2023/09/02 03:01:32;;;;;;;6.00;4.18;;;20.70;99.90;;;;;;5044054;28;20281;-59
2023/09/02 03:03:59;;;;;;;7.05;4.70;;;20.70;99.90;;;;;;5042573;28;20662;-57
2023/09/02 03:06:25;;;;;;;7.05;5.38;;;20.60;99.90;;;;;;5042614;28;20202;-58
2023/09/02 03:08:53;;;;;;;7.10;4.43;;;20.70;99.90;;;;;;5044638;28;20202;-55
2023/09/02 03:11:20;;;;;;;5.03;4.25;;;20.60;99.90;;;;;;5045792;28;20294;-58
2023/09/02 03:13:47;;;;;;;6.97;5.00;;;20.60;99.90;;;;;;5042954;28;20223;-55
2023/09/02 03:16:13;;;;;;;8.15;4.63;;;20.60;99.90;;;;;;5044306;28;20200;-58
2023/09/02 03:18:41;;;;;;;5.07;3.95;;;20.60;99.90;;;;;;5044362;28;20680;-58
2023/09/02 03:21:08;;;;;;;5.10;4.35;;;20.60;99.90;;;;;;5044410;28;21153;-56
2023/09/02 03:23:36;;;;;;;5.30;4.80;;;20.60;99.90;;;;;;5044899;28;20204;-57
2023/09/02 03:26:11;;;;;;;5.10;4.45;;;20.60;99.90;;;;;;5042496;28;20670;-59
2023/09/02 03:28:38;;;;;;;6.25;4.00;;;20.60;99.90;;;;;;5044009;28;20204;-56
2023/09/02 03:31:06;;;;;;;5.05;4.55;;;20.60;99.90;;;;;;5044465;28;20199;-54
2023/09/02 03:33:32;;;;;;;6.20;4.80;;;20.60;99.90;;;;;;5041199;28;20639;-55
2023/09/02 03:35:59;;;;;;;5.53;4.70;;;20.60;99.90;;;;;;5041860;28;20199;-56
2023/09/02 03:38:26;;;;;;;5.25;4.72;;;20.70;99.90;;;;;;5042659;28;20207;-57
2023/09/02 03:40:53;;;;;;;4.70;4.15;;;20.60;99.90;;;;;;5042593;28;20643;-56
2023/09/02 03:43:21;;;;;;;5.85;4.75;;;20.60;99.90;;;;;;5040963;28;20203;-60
2023/09/02 03:45:48;;;;;;;4.77;4.30;;;20.60;99.90;;;;;;5039824;28;20668;-59
2023/09/02 03:48:17;;;;;;;4.50;4.10;;;20.60;99.90;;;;;;5045141;28;20449;-56
2023/09/02 03:51:01;;;;;;;5.07;4.00;;;20.60;99.90;;;;;;5044020;28;20460;-56
2023/09/02 03:53:28;;;;;;;5.07;4.55;;;20.60;99.90;;;;;;5043377;28;20211;-59
2023/09/02 03:55:54;;;;;;;4.53;4.10;;;20.60;99.90;;;;;;5042206;28;20229;-57
2023/09/02 03:58:22;;;;;;;4.93;3.80;;;20.60;99.90;;;;;;5045021;28;20202;-57
2023/09/02 04:00:49;;;;;;;4.97;4.47;;;20.60;99.90;;;;;;5041756;28;20199;-58
2023/09/02 04:03:19;;;;;;;5.00;4.25;;;20.60;99.90;;;;;;5041989;28;20217;-60
2023/09/02 04:05:46;;;;;;;4.85;4.35;;;20.60;99.90;;;;;;5043528;28;20189;-61
2023/09/02 04:08:13;;;;;;;5.20;4.68;;;20.60;99.90;;;;;;5044414;28;20195;-57
2023/09/02 04:10:39;;;;;;;4.80;4.30;;;20.60;99.90;;;;;;5043303;28;20217;-60
2023/09/02 04:13:06;;;;;;;5.18;4.43;;;20.60;99.90;;;;;;5043677;28;20194;-57
2023/09/02 04:15:34;;;;;;;4.90;4.50;;;20.60;99.90;;;;;;5042712;28;20198;-57
2023/09/02 04:18:01;;;;;;;3.97;3.63;;;20.60;99.90;;;;;;5047083;28;20222;-58
2023/09/02 04:20:27;;;;;;;6.03;5.43;;;20.60;99.90;;;;;;5043343;28;20212;-56
2023/09/02 04:22:54;;;;;;;6.00;4.85;;;20.60;99.90;;;;;;5044399;28;20199;-59
2023/09/02 04:25:21;;;;;;;4.60;4.15;;;20.60;99.90;;;;;;5043228;28;20210;-58
2023/09/02 04:27:47;;;;;;;3.97;3.63;;;20.60;99.90;;;;;;5043431;28;20195;-55
2023/09/02 04:30:17;;;;;;;4.20;3.70;;;20.60;99.90;;;;;;5046106;28;20198;-59
2023/09/02 04:32:47;;;;;;;5.97;3.85;;;20.60;99.90;;;;;;5049003;28;20202;-56
2023/09/02 04:35:14;;;;;;;5.03;4.32;;;20.60;99.90;;;;;;5048782;28;20519;-55
2023/09/02 04:37:41;;;;;;;6.13;4.68;;;20.60;99.90;;;;;;5047516;28;20558;-57
2023/09/02 04:40:09;;;;;;;5.40;4.85;;;20.60;99.90;;;;;;5049354;28;20187;-58
2023/09/02 04:42:36;;;;;;;4.32;3.92;;;20.60;99.90;;;;;;5053963;28;20194;-53
2023/09/02 04:45:03;;;;;;;6.03;3.80;;;20.60;99.90;;;;;;5051974;28;20201;-58
2023/09/02 04:47:29;;;;;;;6.13;4.43;;;20.60;99.90;;;;;;5055645;28;20194;-59
2023/09/02 04:49:57;;;;;;;3.60;3.25;;;20.60;99.90;;;;;;5055278;28;20324;-59
2023/09/02 04:52:24;;;;;;;5.68;4.53;;;20.60;99.90;;;;;;5055868;28;20191;-60
2023/09/02 04:54:51;;;;;;;5.63;4.82;;;20.50;99.90;;;;;;5053391;28;20222;-57
2023/09/02 04:57:17;;;;;;;4.32;3.92;;;20.60;99.90;;;;;;5047516;28;20187;-60
2023/09/02 04:59:44;;;;;;;5.20;4.30;;;20.50;99.90;;;;;;5048429;28;20210;-55
2023/09/02 05:02:11;;;;;;;3.63;3.25;;;20.60;99.90;;;;;;5056420;28;20225;-59
2023/09/02 05:04:37;;;;;;;5.30;4.40;;;20.50;99.90;;;;;;5052716;28;20936;-54
2023/09/02 05:07:05;;;;;;;4.03;3.60;;;20.50;99.90;;;;;;5056300;28;20186;-56
2023/09/02 05:09:32;;;;;;;4.35;3.95;;;20.60;99.90;;;;;;5056423;28;20202;-56
2023/09/02 05:11:59;;;;;;;4.93;4.45;;;20.50;99.90;;;;;;5055515;28;20230;-55
2023/09/02 05:14:25;;;;;;;3.95;3.20;;;20.50;99.90;;;;;;5057107;28;20214;-56
2023/09/02 05:16:52;;;;;;;4.38;3.88;;;20.50;99.90;;;;;;5050320;28;20199;-55
2023/09/02 05:19:19;;;;;;;4.82;4.35;;;20.50;99.90;;;;;;5052590;28;20269;-59
2023/09/02 05:21:46;;;;;;;4.93;4.47;;;20.50;99.90;;;;;;5053421;28;20205;-59
2023/09/02 05:24:14;;;;;;;4.60;3.97;;;20.50;99.90;;;;;;5054059;28;20485;-60
2023/09/02 05:26:41;;;;;;;5.57;3.88;;;20.60;99.90;;;;;;5051756;28;20187;-55
2023/09/02 05:29:07;;;;;;;3.70;3.40;;;20.50;99.90;;;;;;5056424;28;20190;-54
2023/09/02 05:31:34;;;;;;;4.03;3.60;;;20.50;99.90;;;;;;5055455;28;20191;-58
2023/09/02 05:34:01;;;;;;;4.93;4.35;;;20.50;99.90;;;;;;5054736;28;20214;-58
2023/09/02 05:36:27;;;;;;;5.38;4.45;;;20.50;99.90;;;;;;5053672;28;20865;-55
2023/09/02 05:38:54;;;;;;;5.97;4.88;;;20.50;99.90;;;;;;5053677;28;20203;-59
2023/09/02 05:41:24;;;;;;;3.85;3.55;;;20.50;99.90;;;;;;5054231;28;20202;-58
2023/09/02 05:43:50;;;;;;;4.78;4.07;;;20.50;99.90;;;;;;5055322;28;20214;-56
2023/09/02 05:46:17;;;;;;;4.68;3.75;;;20.50;99.90;;;;;;5051741;28;20193;-55
2023/09/02 05:48:44;;;;;;;4.30;3.75;;;20.50;99.90;;;;;;5047251;28;20198;-59
2023/09/02 05:51:11;;;;;;;4.43;3.95;;;20.50;99.90;;;;;;5050070;28;20530;-58
2023/09/02 05:53:37;;;;;;;4.03;3.33;;;20.50;99.90;;;;;;5051586;28;20222;-55
2023/09/02 05:56:04;;;;;;;4.82;3.25;;;20.50;99.90;;;;;;5048664;28;20807;-57
2023/09/02 05:58:32;;;;;;;4.43;3.45;;;20.50;99.90;;;;;;5049180;28;20191;-59
2023/09/02 06:01:04;;;;;;;3.85;3.53;;;20.50;99.90;;;;;;5052449;28;20214;-58
2023/09/02 06:03:30;;;;;;;4.35;3.75;;;20.50;99.90;;;;;;5050425;28;20546;-56
2023/09/02 06:05:58;;;;;;;4.70;4.20;;;20.50;99.90;;;;;;5056680;28;20201;-57
2023/09/02 06:08:24;;;;;;;3.63;3.33;;;20.50;99.90;;;;;;5056455;28;20205;-58
2023/09/02 06:10:58;;;;;;;4.10;3.70;;;20.50;99.90;;;;;;5053766;28;20273;-59
2023/09/02 06:13:25;;;;;;;4.25;3.60;;;20.50;99.90;;;;;;5058448;28;20663;-55
2023/09/02 06:15:57;;;;;;;4.72;3.60;;;20.50;99.90;;;;;;5054657;28;20257;-60
2023/09/02 06:18:23;;;;;;;4.28;3.88;;;20.50;99.90;;;;;;5057659;28;20199;-58
2023/09/02 06:20:50;;;;;;;5.40;4.63;;;20.50;99.90;;;;;;5057700;28;20682;-55
2023/09/02 06:23:17;;;;;;;3.80;3.42;;;20.50;99.90;;;;;;5055235;28;20281;-56
2023/09/02 06:25:43;;;;;;;4.93;4.15;;;20.50;99.90;;;;;;5050124;28;20202;-58
2023/09/02 06:28:10;;;;;;;3.95;3.42;;;20.50;99.90;;;;;;5052408;28;20187;-57
2023/09/02 06:30:37;;;;;;;4.22;3.30;;;20.50;99.90;;;;;;5054796;28;20207;-61
2023/09/02 06:33:05;;;;;;;3.50;3.20;;;20.50;99.90;;;;;;5054734;28;20202;-59
2023/09/02 06:35:32;;;;;;;4.72;3.88;;;20.50;99.90;;;;;;5057934;28;20211;-57
2023/09/02 06:37:59;;;;;;;4.70;4.20;;;20.50;99.90;;;;;;5049741;28;20194;-58
2023/09/02 06:40:26;;;;;;;4.05;3.63;;;20.50;99.90;;;;;;5052800;28;20193;-60
2023/09/02 06:42:52;;;;;;;4.40;3.47;;;20.50;99.90;;;;;;5050303;28;20195;-59
2023/09/02 06:45:19;;;;;;;4.80;4.40;;;20.50;99.90;;;;;;5052288;28;20904;-54
2023/09/02 06:47:46;;;;;;;4.40;4.00;;;20.50;99.90;;;;;;5056730;28;20207;-57
2023/09/02 06:50:14;;;;;;;4.38;3.30;;;20.50;99.90;;;;;;5053084;28;20900;-58
2023/09/02 06:52:41;;;;;;;5.10;3.70;;;20.50;99.90;;;;;;5050665;28;20195;-55
2023/09/02 06:55:08;;;;;;;5.75;3.83;;;20.50;99.90;;;;;;5055662;28;20215;-57
2023/09/02 06:57:35;;;;;;;5.05;3.72;;;20.50;99.90;;;;;;5053480;28;20194;-52
2023/09/02 07:00:01;;;;;;;6.63;4.65;;;20.50;99.90;;;;;;5053956;28;20225;-57
2023/09/02 07:02:28;;;;;;;3.80;3.50;;;20.50;99.90;;;;;;5054054;28;21015;-54
2023/09/02 07:04:55;;;;;;;4.13;3.50;;;20.50;99.90;;;;;;5056238;28;20205;-52
2023/09/02 07:07:23;;;;;;;3.70;3.35;;;20.50;99.90;;;;;;5051947;28;20202;-58
2023/09/02 07:09:49;;;;;;;5.53;3.57;;;20.50;99.90;;;;;;5046352;28;20654;-54
2023/09/02 07:12:16;;;;;;;5.47;3.92;;;20.50;99.90;;;;;;5045688;28;20461;-53
2023/09/02 07:14:43;;;;;;;4.03;3.63;;;20.50;99.90;;;;;;5054666;28;20233;-57
2023/09/02 07:17:10;;;;;;;4.65;4.25;;;20.50;99.90;;;;;;5048695;28;20748;-55
2023/09/02 07:19:37;;;;;;;4.25;3.85;;;20.50;99.90;;;;;;5047425;28;20203;-53
2023/09/02 07:22:04;;;;;;;4.45;4.05;;;20.50;99.90;;;;;;5052471;28;20206;-55
2023/09/02 07:24:32;;;;;;;5.07;4.00;;;20.50;99.90;;;;;;5055239;28;20221;-54
2023/09/02 07:26:58;;;;;;;4.15;3.67;;;20.60;99.90;;;;;;5046716;28;20199;-58
2023/09/02 07:29:25;;;;;;;4.40;3.75;;;20.60;99.90;;;;;;5053424;28;20297;-54
2023/09/02 07:31:52;;;;;;;6.57;4.22;;;20.60;99.90;;;;;;5051525;28;20717;-52
2023/09/02 07:34:19;;;;;;;3.65;3.22;;;20.60;99.90;;;;;;5047748;28;20488;-52
2023/09/02 07:36:45;;;;;;;4.03;3.63;;;20.60;99.90;;;;;;5045333;28;20195;-53
2023/09/02 07:39:12;;;;;;;4.72;3.58;;;20.60;99.90;;;;;;5054566;28;20191;-53
2023/09/02 07:41:40;;;;;;;4.60;4.05;;;20.60;99.90;;;;;;5049946;28;20232;-56
2023/09/02 07:44:08;;;;;;;2.85;2.65;;;20.60;99.90;;;;;;5050948;28;20194;-52
2023/09/02 07:46:35;;;;;;;3.67;3.38;;;20.60;99.90;;;;;;5047562;28;20554;-54
2023/09/02 07:49:02;;;;;;;4.10;3.53;;;20.60;99.90;;;;;;5050492;28;20752;-54
2023/09/02 07:51:28;;;;;;;5.25;3.95;;;20.60;99.90;;;;;;5049557;28;20195;-54
2023/09/02 07:53:55;;;;;;;4.05;3.42;;;20.60;99.90;;;;;;5042051;28;20187;-53
2023/09/02 07:56:23;;;;;;;4.45;3.55;;;20.60;99.90;;;;;;5047894;28;20216;-56
2023/09/02 07:58:52;;;;;;;3.70;3.40;;;20.60;99.90;;;;;;5051922;28;20206;-54
2023/09/02 08:01:20;;;;;;;4.85;4.25;;;20.60;99.90;;;;;;5045371;28;20206;-58
2023/09/02 08:03:47;;;;;;;4.97;3.55;;;20.60;99.90;;;;;;5048489;28;20231;-54
2023/09/02 08:06:14;;;;;;;10.18;5.18;;;20.60;99.90;;;;;;5042562;28;20474;-57
2023/09/02 08:08:40;;;;;;;14.57;4.30;;;20.60;99.90;;;;;;5039577;28;20663;-57
2023/09/02 08:11:07;;;;;;;7.47;3.45;;;20.60;99.90;;;;;;5042259;28;20558;-58
2023/09/02 08:13:35;;;;;;;5.28;3.92;;;20.70;99.90;;;;;;5041383;28;20195;-57
2023/09/02 08:16:05;;;;;;;5.35;4.20;;;20.60;99.90;;;;;;5039463;28;20210;-57
2023/09/02 08:18:33;;;;;;;5.05;3.50;;;20.60;99.90;;;;;;5041661;28;20232;-58
2023/09/02 08:20:59;;;;;;;4.05;3.65;;;20.60;99.90;;;;;;5043867;28;20186;-50
2023/09/02 08:23:26;;;;;;;3.90;3.47;;;20.60;99.90;;;;;;5051397;28;20527;-55
2023/09/02 08:25:53;;;;;;;4.80;3.50;;;20.60;99.90;;;;;;5040745;28;20205;-59
2023/09/02 08:28:20;;;;;;;5.57;3.17;;;20.60;99.90;;;;;;5040201;28;20542;-56
2023/09/02 08:30:47;;;;;;;3.83;3.40;;;20.60;99.90;;;;;;5042327;28;20198;-55
2023/09/02 08:33:15;;;;;;;4.53;3.42;;;20.60;99.90;;;;;;5044231;28;20217;-51
2023/09/02 08:35:41;;;;;;;5.05;3.88;;;20.60;99.90;;;;;;5040465;28;20207;-56
2023/09/02 08:38:08;;;;;;;4.72;4.03;;;20.60;99.90;;;;;;5042361;28;20201;-54
2023/09/02 08:40:35;;;;;;;3.50;3.20;;;20.60;99.90;;;;;;5040810;28;20199;-56
2023/09/02 08:43:02;;;;;;;5.22;3.60;;;20.60;99.90;;;;;;5040469;28;20211;-54
2023/09/02 08:45:30;;;;;;;3.33;3.03;;;20.60;99.90;;;;;;5041943;28;20717;-58
2023/09/02 08:48:00;;;;;;;4.70;3.58;;;20.70;99.90;;;;;;5039573;28;20206;-53
2023/09/02 08:50:30;;;;;;;6.95;3.83;;;20.70;99.90;;;;;;5041406;28;20735;-56
2023/09/02 08:52:57;;;;;;;4.73;3.37;;;20.70;99.90;;;;;;5039323;28;20196;-58
2023/09/02 08:55:25;;;;;;;3.90;3.60;;;20.70;99.90;;;;;;5034796;28;20481;-53
2023/09/02 08:57:52;;;;;;;4.32;3.53;;;20.70;99.90;;;;;;5038414;28;20471;-57
2023/09/02 09:00:19;;;;;;;6.03;3.40;;;20.70;99.90;;;;;;5044155;28;20535;-53
2023/09/02 09:02:46;;;;;;;7.00;3.50;;;20.70;99.90;;;;;;5041782;28;20201;-55
2023/09/02 09:05:13;;;;;;;5.47;3.70;;;20.70;99.90;;;;;;5043493;28;20198;-53
2023/09/02 09:07:41;;;;;;;3.92;3.47;;;20.70;99.90;;;;;;5041622;28;20183;-55
2023/09/02 09:10:11;;;;;;;4.18;3.80;;;20.70;99.90;;;;;;5042935;28;20194;-55
2023/09/02 09:12:38;;;;;;;6.18;3.50;;;20.70;99.90;;;;;;5039212;28;20214;-53
2023/09/02 09:15:07;;;;;;;4.68;3.00;;;20.70;99.90;;;;;;5041339;28;20709;-55
2023/09/02 09:17:34;;;;;;;3.50;3.20;;;20.70;99.90;;;;;;5043010;28;20743;-54
2023/09/02 09:20:03;;;;;;;6.05;3.75;;;20.70;99.90;;;;;;5043594;28;20195;-55
2023/09/02 09:22:30;;;;;;;4.68;3.90;;;20.70;99.90;;;;;;5042376;28;20203;-50
2023/09/02 09:24:58;;;;;;;5.90;3.78;;;20.70;99.90;;;;;;5034987;28;20203;-56
2023/09/02 09:27:26;;;;;;;3.85;3.35;;;20.70;99.90;;;;;;5023607;28;20241;-57
2023/09/02 09:29:52;;;;;;;6.97;3.85;;;20.70;99.90;;;;;;5037837;28;20235;-55
2023/09/02 09:32:22;;;;;;;3.28;2.72;;;20.70;99.90;;;;;;5030010;28;20528;-56
2023/09/02 09:34:49;;;;;;;5.03;3.63;;;20.70;99.90;;;;;;5032749;28;20858;-55
2023/09/02 09:37:16;;;;;;;5.15;3.55;;;20.70;99.90;;;;;;5031245;28;20200;-53
2023/09/02 09:39:44;;;;;;;4.07;3.67;;;20.70;99.90;;;;;;5034168;28;20206;-60
2023/09/02 09:42:13;;;;;;;4.38;3.95;;;20.70;99.90;;;;;;5036510;28;20308;-61
2023/09/02 09:45:00;;;;;;;3.92;3.58;;;20.80;99.90;;;;;;5039398;28;20195;-56
2023/09/02 09:47:27;;;;;;;4.88;3.95;;;20.80;99.90;;;;;;5039518;28;20193;-56
2023/09/02 09:49:54;;;;;;;4.68;3.47;;;20.80;99.90;;;;;;5030975;28;20198;-58
2023/09/02 09:52:22;;;;;;;3.63;3.33;;;20.80;99.90;;;;;;5038282;28;20210;-59
2023/09/02 09:54:50;;;;;;;4.90;3.47;;;20.80;99.90;;;;;;5037282;28;20682;-55
2023/09/02 09:57:29;;;;;;;3.40;3.10;;;20.90;99.90;;;;;;5032063;28;20804;-58
2023/09/02 09:59:56;;;;;;;3.23;2.93;;;20.90;99.90;;;;;;5039606;28;20456;-59
2023/09/02 10:02:23;;;;;;;4.80;3.43;;;20.90;99.90;;;;;;5044089;28;20468;-57
2023/09/02 10:04:52;;;;;;;2.93;2.73;;;20.90;99.90;;;;;;5043631;28;20484;-56
2023/09/02 10:07:23;;;;;;;3.20;2.90;;;21.00;99.90;;;;;;5036712;28;20543;-54
2023/09/02 10:09:49;;;;;;;10.57;3.57;;;21.00;99.90;;;;;;5037332;28;20460;-59
2023/09/02 10:12:17;;;;;;;5.00;3.70;;;21.00;99.90;;;;;;5045590;28;20457;-54
2023/09/02 10:14:47;;;;;;;3.83;3.07;;;21.10;99.90;;;;;;5055991;28;20535;-59
2023/09/02 10:17:15;;;;;;;3.07;2.77;;;21.10;99.90;;;;;;5025303;28;20459;-59
2023/09/02 10:19:42;;;;;;;3.30;3.00;;;21.10;99.90;;;;;;5012535;28;20470;-59
2023/09/02 10:22:09;;;;;;;3.63;2.97;;;21.10;99.90;;;;;;5014586;28;20461;-54
2023/09/02 10:24:44;;;;;;;3.60;3.13;;;21.10;99.90;;;;;;5010591;28;20482;-55
2023/09/02 10:27:18;;;;;;;6.37;3.23;;;21.20;99.90;;;;;;5008674;28;20498;-56
2023/09/02 10:29:51;;;;;;;6.47;2.60;;;21.20;99.90;;;;;;5011756;28;20874;-55
2023/09/02 10:32:17;;;;;;;4.30;3.10;;;21.20;99.90;;;;;;5007888;28;20458;-53
2023/09/02 10:34:52;;;;;;;6.17;2.70;;;21.30;99.90;;;;;;5003067;28;20490;-57
2023/09/02 10:37:25;;;;;;;3.10;2.80;;;21.30;99.90;;;;;;5003060;28;20483;-53
2023/09/02 10:39:56;;;;;;;3.80;3.20;;;21.30;99.90;;;;;;4988687;28;20466;-57
2023/09/02 10:42:25;;;;;;;7.00;3.47;;;21.30;99.90;;;;;;4990778;28;20462;-55
2023/09/02 10:44:55;;;;;;;3.43;3.13;;;21.40;99.90;;;;;;4996995;28;20458;-57
2023/09/02 10:47:22;;;;;;;4.97;3.00;;;21.40;99.90;;;;;;5004786;28;20456;-54
2023/09/02 10:49:50;;;;;;;9.87;2.90;;;21.40;99.90;;;;;;5009495;28;20459;-55
2023/09/02 10:52:17;;;;;;;4.70;2.53;;;21.40;99.90;;;;;;5012723;28;20481;-53
2023/09/02 10:55:08;;;;;;;3.93;2.97;;;21.40;99.90;;;;;;5013425;28;20450;-56
2023/09/02 10:57:46;;;;;;;7.67;3.10;;;21.40;99.90;;;;;;5013650;28;20451;-56
2023/09/02 11:00:19;;;;;;;3.03;2.83;;;21.40;99.90;;;;;;5014961;28;20973;-57
2023/09/02 11:02:47;;;;;;;2.87;2.63;;;21.40;99.90;;;;;;5016011;28;20474;-53
2023/09/02 11:05:14;;;;;;;3.43;3.13;;;21.40;99.90;;;;;;5007869;28;20469;-52
2023/09/02 11:07:41;;;;;;;3.93;2.87;;;21.50;99.90;;;;;;5010862;28;20451;-55
2023/09/02 11:10:09;;;;;;;3.20;2.90;;;21.50;99.90;;;;;;5011062;28;21082;-51
2023/09/02 11:13:03;;;;;;;3.90;2.90;;;21.50;99.90;;;;;;5008858;28;20459;-53
2023/09/02 11:15:32;;;;;;;3.10;2.80;;;21.50;99.90;;;;;;5009029;28;21590;-51
2023/09/02 11:18:29;;;;;;;5.70;2.80;;;21.50;99.90;;;;;;5012207;28;20460;-54
2023/09/02 11:20:56;;;;;;;3.37;2.60;;;21.50;99.90;;;;;;5005674;28;20773;-55
2023/09/02 11:23:24;;;;;;;2.60;2.40;;;21.50;99.90;;;;;;5010221;28;20474;-53
2023/09/02 11:26:01;;;;;;;2.67;2.30;;;21.50;99.90;;;;;;4994543;28;21005;-58
2023/09/02 11:28:29;;;;;;;2.73;2.53;;;21.50;99.90;;;;;;5007378;28;20466;-59
2023/09/02 11:31:09;;;;;;;4.10;3.37;;;21.50;99.90;;;;;;5000316;28;20492;-54
2023/09/02 11:33:37;;;;;;;2.63;2.43;;;21.60;99.90;;;;;;5011584;28;20466;-59
2023/09/02 11:36:05;;;;;;;3.20;2.90;;;21.60;99.90;;;;;;5010887;28;20978;-54
2023/09/02 11:38:33;;;;;;;2.73;2.50;;;21.60;99.90;;;;;;5009855;28;20460;-53
2023/09/02 11:41:01;;;;;;;3.63;2.70;;;21.60;99.90;;;;;;5014699;28;20458;-53
2023/09/02 11:43:31;;;;;;;2.87;2.63;;;21.60;99.90;;;;;;5012877;28;20458;-55
2023/09/02 11:45:59;;;;;;;3.40;2.50;;;21.60;99.90;;;;;;5009414;28;20464;-58
2023/09/02 11:48:27;;;;;;;4.03;2.63;;;21.60;99.90;;;;;;5010263;28;20561;-54
2023/09/02 11:50:57;;;;;;;5.40;3.00;;;21.60;99.90;;;;;;5006583;28;20584;-59
2023/09/02 11:53:25;;;;;;;3.30;3.00;;;21.70;99.90;;;;;;5013268;28;20466;-57
2023/09/02 11:55:51;;;;;;;3.60;2.53;;;21.70;99.90;;;;;;5012517;28;20482;-59
2023/09/02 11:58:19;;;;;;;4.33;3.00;;;21.70;99.90;;;;;;5009667;28;21023;-54
2023/09/02 12:00:46;;;;;;;3.30;2.90;;;21.70;99.90;;;;;;5008992;28;21069;-57
2023/09/02 12:03:15;;;;;;;6.60;3.10;;;21.70;99.90;;;;;;5004438;28;20475;-56
2023/09/02 12:05:49;;;;;;;2.90;2.60;;;21.70;99.90;;;;;;5005510;28;20561;-54
2023/09/02 12:08:16;;;;;;;3.33;2.40;;;21.70;99.90;;;;;;5010578;28;20458;-56
2023/09/02 12:10:44;;;;;;;3.50;3.10;;;21.70;99.90;;;;;;5008083;28;20455;-58
2023/09/02 12:13:10;;;;;;;2.47;2.27;;;21.80;99.90;;;;;;5005766;28;20471;-53
2023/09/02 12:15:37;;;;;;;3.90;2.80;;;21.80;99.90;;;;;;5005948;28;20451;-64
2023/09/02 12:18:05;;;;;;;3.80;3.20;;;21.80;99.90;;;;;;5007367;28;20988;-64
2023/09/02 12:20:32;;;;;;;3.13;2.83;;;21.80;99.90;;;;;;5006039;28;20529;-64
2023/09/02 12:23:00;;;;;;;4.40;4.00;;;21.80;99.90;;;;;;5009230;28;20690;-67
2023/09/02 12:25:27;;;;;;;4.10;3.30;;;21.80;99.90;;;;;;5005323;28;21071;-69
2023/09/02 12:28:10;;;;;;;3.70;3.50;;;21.80;99.90;;;;;;5008392;28;22054;-70
2023/09/02 12:30:37;;;;;;;6.30;5.10;;;21.90;99.90;;;;;;5010961;28;20443;-69
2023/09/02 12:33:05;;;;;;;4.53;4.23;;;21.90;99.90;;;;;;5012008;28;20810;-67
2023/09/02 12:35:32;;;;;;;5.27;4.70;;;21.90;99.90;;;;;;5012449;28;20479;-68
2023/09/02 12:38:05;;;;;;;4.93;4.47;;;21.90;99.90;;;;;;5009699;28;20479;-71
2023/09/02 12:40:32;;;;;;;5.37;4.87;;;22.00;99.90;;;;;;5009174;28;20465;-74
2023/09/02 12:42:59;;;;;;;5.20;4.80;;;22.00;99.90;;;;;;5011362;28;20462;-74
2023/09/02 12:45:30;;;;;;;4.93;4.53;;;22.00;99.90;;;;;;5012787;28;20471;-71
2023/09/02 12:47:58;;;;;;;5.67;5.17;;;22.00;99.90;;;;;;5011763;28;20454;-67
2023/09/02 12:50:26;;;;;;;5.40;5.00;;;22.00;99.90;;;;;;5015486;28;20472;-68